This is the latest recevied weather packets stored in our database for station/object WD4IXD. If no packets are shown the sender has not sent any weather packets the latest 1 day(s).
| Time | Temp. | Humidity | Pressure | Rain* | Wind** | Luminosity | Snow |
|---|---|---|---|---|---|---|---|
| 1778028904 | 1.11° C | 94% | 1014.9 hPa | 0.51 mm | 1.79 m/s, 325° | 11 W/m² | - |
| 1778028615 | 1.11° C | 94% | 1014.9 hPa | 0.51 mm | 1.34 m/s, 331° | 11 W/m² | - |
| 1778028304 | 1.11° C | 94% | 1014.8 hPa | 0.51 mm | 2.68 m/s, 330° | 12 W/m² | - |
| 1778028015 | 1.11° C | 94% | 1014.7 hPa | 0.51 mm | 1.34 m/s, 340° | 21 W/m² | - |
| 1778027704 | 1.11° C | 94% | 1014.8 hPa | 0.51 mm | 1.34 m/s, 336° | 19 W/m² | - |
| 1778027415 | 1.11° C | 94% | 1014.8 hPa | 0.25 mm | 1.34 m/s, 334° | 23 W/m² | - |
| 1778027104 | 1.11° C | 94% | 1014.7 hPa | 0.25 mm | 1.34 m/s, 351° | 23 W/m² | - |
| 1778026815 | 1.11° C | 94% | 1014.7 hPa | 0.25 mm | 1.34 m/s, 334° | 30 W/m² | - |
| 1778026503 | 1.11° C | 94% | 1014.6 hPa | 0.25 mm | 1.79 m/s, 354° | 25 W/m² | - |
| 1778026215 | 1.11° C | 94% | 1014.6 hPa | 0 mm | 1.34 m/s, 315° | 16 W/m² | - |
| 1778025904 | 1.11° C | 94% | 1014.5 hPa | 0 mm | 0.89 m/s, 334° | 21 W/m² | - |
| 1778025614 | 1.11° C | 94% | 1014.5 hPa | 0 mm | 0.89 m/s, 321° | 21 W/m² | - |
| 1778025304 | 1.11° C | 94% | 1014.5 hPa | 0 mm | 0.45 m/s, 306° | 21 W/m² | - |
| 1778025015 | 1.11° C | 94% | 1014.4 hPa | 0 mm | 0.89 m/s, 316° | 21 W/m² | - |
| 1778024704 | 1.11° C | 94% | 1014.2 hPa | 0 mm | 0.89 m/s, 336° | 19 W/m² | - |
| 1778024415 | 1.11° C | 94% | 1014.2 hPa | 0 mm | 0.89 m/s, 345° | 16 W/m² | - |
| 1778024104 | 1.11° C | 94% | 1014.5 hPa | 0 mm | 1.34 m/s, 314° | 12 W/m² | - |
| 1778023815 | 1.11° C | 94% | 1014.3 hPa | 0 mm | 1.79 m/s, 328° | 12 W/m² | - |
| 1778023504 | 1.11° C | 94% | 1014.3 hPa | 0 mm | 1.34 m/s, 320° | 11 W/m² | - |
| 1778023215 | 1.11° C | 94% | 1014.2 hPa | 0 mm | 0.89 m/s, 308° | 5 W/m² | - |
| 1778022904 | 1.11° C | 94% | 1014.1 hPa | 0 mm | 0.45 m/s, 321° | 5 W/m² | - |
| 1778022615 | 1.11° C | 94% | 1014 hPa | 0 mm | 0.45 m/s, 355° | 7 W/m² | - |
| 1778022304 | 1.11° C | 94% | 1014 hPa | 0 mm | 0.45 m/s, 347° | 9 W/m² | - |
| 1778022015 | 1.11° C | 94% | 1014.1 hPa | 0 mm | 0.89 m/s, 319° | 12 W/m² | - |
| 1778021704 | 1.11° C | 94% | 1014.2 hPa | 0 mm | 1.34 m/s, 316° | 12 W/m² | - |
* Rain latest hour (hover to see other rain measurements)
** Current wind speed in m/s (hover to see current wind gust speed)